Concord, Massachusetts
Current Conditions -  °F | °C
As of 1:41 PM on Wednesday 26 Nov 2014 (Local Time) from KBED Reporting Station
Light Snow Light Snow  
Wind Chill: 24°   Ceiling: 500
Heat Index: 32°   Visibility: 0.75mi
Dew Point: 32°   Wind: 9mph
Humidity: 100%   Direction: 360°N
Pressure: 30.04"   Gusts: NA
Location:  42.46°N, 71.35°W
Report Text: KBED 261841Z 36008KT 3/4SM R11/5000V6000FT -SN BR BKN005 OVC009 00/00 A3004 RMK AO2 P0008 T00000000
Loading
Personal Weather Stations






























Interactive Weather Map New forecast layout! Learn more

10-Day Weather Forecast

Advertisements
Track Severe Weather on mobile